Astoria, South Dakota
Current Conditions -  °F | °C
As of 10:14 PM on Tuesday 25 Nov 2014 (Local Time) from KCNB Reporting Station
Light Snow Light Snow  
Wind Chill: -6°   Ceiling: 2800
Heat Index: -1°   Visibility: 3mi
Dew Point: -4°   Wind: 9mph
Humidity: 81%   Direction: 120°ESE
Pressure: 29.88"   Gusts: NA
Location:  44.56°N, 96.55°W
Report Text: KCNB 260414Z AUTO 12008KT 3SM -SN SCT013 BKN028 OVC050 M01/M04 A2988 RMK AO2 T10141042
Loading
Personal Weather Stations






























Interactive Weather Map New forecast layout! Learn more

10-Day Weather Forecast

Advertisements
Track Severe Weather on mobile